createdAt,value
2023-11-12T00:04:19.245Z,100.00
2023-11-12T00:09:21.026Z,100.00
2023-11-12T00:14:22.821Z,100.00
2023-11-12T00:19:24.952Z,100.00
2023-11-12T00:24:29.010Z,100.00
2023-11-12T00:29:30.690Z,100.00
2023-11-12T00:34:32.458Z,100.00
2023-11-12T00:39:34.282Z,100.00
2023-11-12T00:44:36.858Z,100.00
2023-11-12T00:49:38.598Z,100.00
2023-11-12T00:54:40.299Z,100.00
2023-11-12T00:59:43.108Z,100.00
2023-11-12T01:04:44.895Z,100.00
2023-11-12T01:09:47.480Z,100.00
2023-11-12T01:14:49.240Z,100.00
2023-11-12T01:19:50.995Z,100.00
2023-11-12T01:24:52.850Z,100.00
2023-11-12T01:29:54.647Z,100.00
2023-11-12T01:34:56.344Z,100.00
2023-11-12T01:39:58.054Z,100.00
2023-11-12T01:45:01.210Z,100.00
2023-11-12T01:50:04.993Z,100.00
2023-11-12T01:55:09.475Z,100.00
2023-11-12T02:00:13.117Z,100.00
2023-11-12T02:05:15.100Z,100.00
2023-11-12T02:10:18.053Z,99.80
2023-11-12T02:15:19.876Z,99.03
2023-11-12T02:20:22.716Z,99.02
2023-11-12T02:25:25.088Z,98.41
2023-11-12T02:30:27.470Z,97.60
2023-11-12T02:35:30.982Z,97.73
2023-11-12T02:40:32.687Z,97.37
2023-11-12T02:45:34.409Z,96.62
2023-11-12T02:50:36.808Z,96.65
2023-11-12T02:55:38.629Z,95.71
2023-11-12T03:00:40.438Z,95.37
2023-11-12T03:05:42.227Z,95.68
2023-11-12T03:10:43.980Z,95.34
2023-11-12T03:15:46.364Z,94.85
2023-11-12T03:20:48.202Z,93.61
2023-11-12T03:25:49.939Z,93.25
2023-11-12T03:30:51.738Z,93.33
2023-11-12T03:35:53.514Z,93.62
2023-11-12T03:40:55.322Z,93.24
2023-11-12T03:45:57.007Z,93.90
2023-11-12T03:50:58.710Z,92.65
2023-11-12T03:56:00.508Z,92.84
2023-11-12T04:01:02.279Z,93.42
2023-11-12T04:06:04.259Z,92.87
2023-11-12T04:11:06.054Z,92.62
2023-11-12T04:16:08.117Z,93.13
2023-11-12T04:21:11.614Z,93.11
2023-11-12T04:26:14.655Z,94.32
2023-11-12T04:31:17.414Z,93.86
2023-11-12T04:36:20.035Z,93.17
2023-11-12T04:41:23.554Z,92.07
2023-11-12T04:46:26.170Z,92.38
2023-11-12T04:51:28.134Z,93.24
2023-11-12T04:56:29.940Z,92.76
2023-11-12T05:01:31.763Z,92.34
2023-11-12T05:06:33.972Z,93.78
2023-11-12T05:11:38.132Z,92.63
2023-11-12T05:16:43.038Z,92.58
2023-11-12T05:21:45.585Z,92.94
2023-11-12T05:26:47.333Z,92.69
2023-11-12T05:31:49.271Z,92.77
2023-11-12T05:36:51.132Z,91.74
2023-11-12T05:41:52.863Z,91.78
2023-11-12T05:46:54.561Z,91.54
2023-11-12T05:51:56.290Z,91.99
2023-11-12T05:56:57.964Z,92.31
2023-11-12T06:01:59.869Z,92.13
2023-11-12T06:07:02.371Z,92.58
2023-11-12T06:12:06.540Z,92.61
2023-11-12T06:17:08.520Z,92.34
2023-11-12T06:22:10.363Z,92.11
2023-11-12T06:27:12.208Z,91.75
2023-11-12T06:32:13.942Z,92.64
2023-11-12T06:37:16.615Z,91.68
2023-11-12T06:42:18.336Z,92.70
2023-11-12T06:47:20.239Z,92.02
2023-11-12T06:52:23.167Z,92.01
2023-11-12T06:57:24.890Z,91.33
2023-11-12T07:02:26.685Z,91.16
2023-11-12T07:07:28.890Z,91.57
2023-11-12T07:12:32.074Z,90.59
2023-11-12T07:17:36.737Z,90.57
2023-11-12T07:22:38.685Z,89.60
2023-11-12T07:27:42.084Z,89.34
2023-11-12T07:32:43.975Z,89.63
2023-11-12T07:37:45.762Z,90.13
2023-11-12T07:42:47.492Z,90.66
2023-11-12T07:47:49.386Z,91.22
2023-11-12T07:52:51.083Z,89.94
2023-11-12T07:57:52.784Z,88.82
2023-11-12T08:02:54.547Z,85.32
2023-11-12T08:07:56.268Z,83.05
2023-11-12T08:12:59.350Z,83.02
2023-11-12T08:18:01.230Z,83.25
2023-11-12T08:23:03.700Z,82.65
2023-11-12T08:28:05.815Z,83.68
2023-11-12T08:33:07.617Z,83.78
2023-11-12T08:38:09.604Z,84.39
2023-11-12T08:43:11.553Z,85.03
2023-11-12T08:48:13.281Z,83.35
2023-11-12T08:53:14.988Z,81.83
2023-11-12T08:58:17.095Z,79.99
2023-11-12T09:03:19.244Z,75.90
2023-11-12T09:08:23.139Z,74.61
2023-11-12T09:13:24.835Z,73.42
2023-11-12T09:18:28.678Z,72.90
2023-11-12T09:23:30.619Z,72.74
2023-11-12T09:28:32.337Z,72.10
2023-11-12T09:33:34.130Z,71.16
2023-11-12T09:38:42.993Z,68.54
2023-11-12T09:43:46.652Z,65.30
2023-11-12T09:48:48.775Z,60.77
2023-11-12T09:53:53.534Z,60.50
2023-11-12T09:58:56.044Z,60.09
2023-11-12T10:03:57.926Z,63.47
2023-11-12T10:09:01.588Z,63.04
2023-11-12T10:14:13.838Z,60.76
2023-11-12T10:19:16.522Z,60.54
2023-11-12T10:24:19.114Z,65.76
2023-11-12T10:29:22.795Z,68.25
2023-11-12T10:34:28.511Z,67.44
2023-11-12T10:39:43.197Z,67.62
2023-11-12T10:44:46.040Z,60.81
2023-11-12T10:49:48.494Z,51.86
2023-11-12T10:54:52.294Z,52.31
2023-11-12T10:59:56.173Z,58.65
2023-11-12T11:04:58.522Z,63.60
2023-11-12T11:10:02.245Z,65.91
2023-11-12T11:15:41.693Z,67.52
2023-11-12T11:21:13.216Z,68.75
2023-11-12T11:26:40.747Z,69.60
2023-11-12T11:31:48.684Z,71.44
2023-11-12T11:37:00.339Z,70.13
2023-11-12T11:42:07.487Z,71.64
2023-11-12T11:47:16.846Z,71.47
2023-11-12T11:52:21.721Z,70.76
2023-11-12T11:57:28.203Z,68.35
2023-11-12T12:02:41.754Z,67.19
2023-11-12T12:07:47.277Z,64.94
2023-11-12T12:12:49.266Z,64.77
2023-11-12T12:17:51.054Z,64.08
2023-11-12T12:22:54.085Z,64.51
2023-11-12T12:27:55.837Z,65.27
2023-11-12T12:32:59.087Z,63.91
2023-11-12T12:38:08.160Z,64.24
2023-11-12T12:43:11.817Z,63.77
2023-11-12T12:48:15.733Z,63.59
2023-11-12T12:53:23.670Z,62.80
2023-11-12T12:58:39.122Z,63.33
2023-11-12T13:03:42.535Z,62.90
2023-11-12T13:08:48.829Z,63.33
2023-11-12T13:13:51.539Z,63.26
2023-11-12T13:18:53.275Z,63.62
2023-11-12T13:23:54.999Z,63.53
2023-11-12T13:28:56.689Z,63.42
2023-11-12T13:33:59.964Z,63.38
2023-11-12T13:39:01.904Z,64.45
2023-11-12T13:44:04.202Z,64.19
2023-11-12T13:49:07.182Z,62.12
2023-11-12T13:54:11.635Z,62.23
2023-11-12T13:59:13.757Z,61.93
2023-11-12T14:04:15.548Z,62.51
2023-11-12T14:09:18.803Z,63.14
2023-11-12T14:14:21.996Z,63.73
2023-11-12T14:19:25.497Z,63.79
2023-11-12T14:24:27.313Z,64.44
2023-11-12T14:29:31.181Z,64.66
2023-11-12T14:34:33.928Z,64.83
2023-11-12T14:39:35.746Z,65.62
2023-11-12T14:44:38.467Z,65.79
2023-11-12T14:49:40.208Z,66.56
2023-11-12T14:54:47.736Z,66.74
2023-11-12T14:59:49.543Z,65.32
2023-11-12T15:04:51.406Z,66.80
2023-11-12T15:09:53.143Z,67.60
2023-11-12T15:14:55.613Z,67.18
2023-11-12T15:19:58.235Z,67.78
2023-11-12T15:24:59.968Z,70.43
2023-11-12T15:30:01.730Z,70.38
2023-11-12T15:35:05.736Z,70.01
2023-11-12T15:40:23.484Z,70.55
2023-11-12T15:45:25.789Z,73.08
2023-11-12T15:50:31.396Z,72.95
2023-11-12T15:55:33.279Z,74.52
2023-11-12T16:00:35.053Z,73.74
2023-11-12T16:05:37.773Z,76.90
2023-11-12T16:10:39.674Z,78.37
2023-11-12T16:15:42.876Z,75.25
2023-11-12T16:20:44.617Z,77.31
2023-11-12T16:25:46.320Z,77.73
2023-11-12T16:30:49.230Z,78.54
2023-11-12T16:35:50.967Z,77.54
2023-11-12T16:40:52.731Z,77.96
2023-11-12T16:45:54.898Z,80.34
2023-11-12T16:50:56.721Z,80.58
2023-11-12T16:55:59.236Z,79.55
2023-11-12T17:01:02.620Z,78.72
2023-11-12T17:06:04.658Z,78.90
2023-11-12T17:11:06.883Z,79.78
2023-11-12T17:16:08.700Z,80.75
2023-11-12T17:21:10.492Z,80.53
2023-11-12T17:26:12.194Z,81.22
2023-11-12T17:31:15.498Z,82.66
2023-11-12T17:36:17.208Z,84.12
2023-11-12T17:41:21.540Z,83.59
2023-11-12T17:46:23.327Z,85.17
2023-11-12T17:51:26.539Z,85.53
2023-11-12T17:56:28.713Z,86.70
2023-11-12T18:01:30.437Z,86.58
2023-11-12T18:06:34.213Z,87.54
2023-11-12T18:11:36.268Z,88.80
2023-11-12T18:16:38.035Z,88.82
2023-11-12T18:21:42.570Z,88.64
2023-11-12T18:26:44.709Z,89.98
2023-11-12T18:31:47.192Z,89.46
2023-11-12T18:36:48.974Z,88.89
2023-11-12T18:41:50.686Z,89.93
2023-11-12T18:46:52.424Z,84.20
2023-11-12T18:51:54.165Z,81.66
2023-11-12T18:56:55.930Z,80.10
2023-11-12T19:01:57.672Z,78.95
2023-11-12T19:06:59.698Z,80.80
2023-11-12T19:12:01.425Z,79.59
2023-11-12T19:17:04.190Z,75.92
2023-11-12T19:22:07.224Z,77.20
2023-11-12T19:27:09.042Z,77.44
2023-11-12T19:32:10.977Z,78.09
2023-11-12T19:37:14.011Z,78.92
2023-11-12T19:42:15.901Z,80.90
2023-11-12T19:47:17.640Z,80.36
2023-11-12T19:52:19.730Z,78.71
2023-11-12T19:57:21.493Z,77.94
2023-11-12T20:02:23.281Z,75.89
2023-11-12T20:07:25.030Z,74.24
2023-11-12T20:12:26.976Z,74.06
2023-11-12T20:17:29.963Z,74.04
2023-11-12T20:22:33.201Z,75.15
2023-11-12T20:27:36.406Z,74.39
2023-11-12T20:32:39.523Z,74.16
2023-11-12T20:37:41.393Z,74.25
2023-11-12T20:42:44.253Z,74.48
2023-11-12T20:47:52.212Z,74.31
2023-11-12T20:52:54.363Z,74.14
2023-11-12T20:57:56.126Z,75.21
2023-11-12T21:02:57.853Z,75.10
2023-11-12T21:07:59.696Z,75.58
2023-11-12T21:13:01.482Z,76.24
2023-11-12T21:18:04.233Z,76.26
2023-11-12T21:23:05.995Z,76.33
2023-11-12T21:28:11.309Z,75.82
2023-11-12T21:33:15.077Z,76.09
2023-11-12T21:38:16.828Z,75.81
2023-11-12T21:43:18.608Z,75.34
2023-11-12T21:48:23.130Z,74.43
2023-11-12T21:53:24.880Z,75.10
2023-11-12T21:58:26.604Z,74.31
2023-11-12T22:03:28.755Z,73.48
2023-11-12T22:08:30.560Z,73.10
2023-11-12T22:13:33.248Z,73.12
2023-11-12T22:18:36.752Z,73.78
2023-11-12T22:23:39.885Z,73.54
2023-11-12T22:28:42.835Z,72.78
2023-11-12T22:33:44.878Z,72.51
2023-11-12T22:38:47.014Z,72.88
2023-11-12T22:43:48.774Z,72.60
2023-11-12T22:48:51.320Z,72.84
2023-11-12T22:53:53.496Z,72.68
2023-11-12T22:58:55.253Z,72.82
2023-11-12T23:03:57.004Z,73.02
2023-11-12T23:09:06.744Z,73.78
2023-11-12T23:14:08.432Z,74.47
2023-11-12T23:19:10.645Z,76.11
2023-11-12T23:24:12.906Z,76.84
2023-11-12T23:29:15.194Z,76.92
2023-11-12T23:34:16.885Z,77.21
2023-11-12T23:39:19.184Z,77.23
2023-11-12T23:44:20.913Z,76.87
2023-11-12T23:49:22.620Z,76.56
2023-11-12T23:54:24.336Z,76.48
2023-11-12T23:59:26.291Z,75.90
